CKL6 weather

Little Bear Lake Airport
Little Bear Lake, Saskatchewan, Canada

Public forecast

Using degrees Celsius for public forecast. Weather courtesy of forecast.io.

METAR (pilot weather report)

Closest report is La Ronge Airport, 55.5 nm (102.8 km) NNW. Retrieved 2019/05/19 14:00 UTC (37 minutes ago):

CYVC 191400Z 16004KT 15SM SKC 08/M03 A3032 RMK SLP282

TAF (pilot weather forecast)

Closest forecast is La Ronge Airport, 55.5 nm (102.8 km) NNW. Retrieved 2019/05/19 13:42 UTC (55 minutes ago):

TAF CYVC 191238Z 1913/2001 VRB03KT P6SM SKC BECMG 1916/1918 08008KT RMK NXT FCST BY 191900Z